sensor_id;sensor_type;location;lat;lon;timestamp;pressure;altitude;pressure_sealevel;temperature;humidity
16595;BME280;8410;52.532;13.336;2022-10-15T00:01:04;100422.72;;;17.07;80.86
16595;BME280;8410;52.532;13.336;2022-10-15T00:03:36;100415.44;;;17.24;80.40
16595;BME280;8410;52.532;13.336;2022-10-15T00:06:05;100417.84;;;17.35;80.06
16595;BME280;8410;52.532;13.336;2022-10-15T00:08:33;100412.97;;;16.70;82.02
16595;BME280;8410;52.532;13.336;2022-10-15T00:11:02;100412.09;;;17.19;80.84
16595;BME280;8410;52.532;13.336;2022-10-15T00:13:30;100406.47;;;16.95;81.77
16595;BME280;8410;52.532;13.336;2022-10-15T00:15:59;100405.91;;;16.78;83.35
16595;BME280;8410;52.532;13.336;2022-10-15T00:18:26;100402.97;;;16.96;81.93
16595;BME280;8410;52.532;13.336;2022-10-15T00:20:55;100401.34;;;16.91;82.70
16595;BME280;8410;52.532;13.336;2022-10-15T00:23:23;100396.72;;;17.07;83.15
16595;BME280;8410;52.532;13.336;2022-10-15T00:26:00;100393.91;;;16.71;84.09
16595;BME280;8410;52.532;13.336;2022-10-15T00:28:27;100390.53;;;16.66;85.93
16595;BME280;8410;52.532;13.336;2022-10-15T00:31:01;100385.22;;;16.72;85.82
16595;BME280;8410;52.532;13.336;2022-10-15T00:33:34;100380.00;;;16.72;86.81
16595;BME280;8410;52.532;13.336;2022-10-15T00:36:04;100387.50;;;16.90;86.71
16595;BME280;8410;52.532;13.336;2022-10-15T00:38:32;100383.41;;;16.77;87.80
16595;BME280;8410;52.532;13.336;2022-10-15T00:41:01;100387.38;;;16.96;86.99
16595;BME280;8410;52.532;13.336;2022-10-15T00:43:39;100378.94;;;16.85;87.24
16595;BME280;8410;52.532;13.336;2022-10-15T00:46:15;100380.38;;;17.00;86.26
16595;BME280;8410;52.532;13.336;2022-10-15T00:48:45;100379.63;;;16.95;86.74
16595;BME280;8410;52.532;13.336;2022-10-15T00:51:17;100385.59;;;16.98;86.63
16595;BME280;8410;52.532;13.336;2022-10-15T00:53:46;100380.47;;;16.94;87.11
16595;BME280;8410;52.532;13.336;2022-10-15T00:56:21;100377.19;;;16.86;86.66
16595;BME280;8410;52.532;13.336;2022-10-15T00:58:50;100365.00;;;16.89;86.91
16595;BME280;8410;52.532;13.336;2022-10-15T01:01:19;100362.50;;;16.83;87.14
16595;BME280;8410;52.532;13.336;2022-10-15T01:03:48;100359.22;;;16.72;87.79
16595;BME280;8410;52.532;13.336;2022-10-15T01:06:17;100358.38;;;16.22;89.15
16595;BME280;8410;52.532;13.336;2022-10-15T01:08:44;100356.78;;;16.15;91.31
16595;BME280;8410;52.532;13.336;2022-10-15T01:11:24;100350.78;;;16.61;90.35
16595;BME280;8410;52.532;13.336;2022-10-15T01:14:01;100339.31;;;16.71;89.03
16595;BME280;8410;52.532;13.336;2022-10-15T01:16:39;100335.56;;;16.87;88.80
16595;BME280;8410;52.532;13.336;2022-10-15T01:19:18;100337.63;;;16.68;89.33
16595;BME280;8410;52.532;13.336;2022-10-15T01:21:57;100338.03;;;16.93;88.91
16595;BME280;8410;52.532;13.336;2022-10-15T01:24:42;100332.13;;;16.85;88.19
16595;BME280;8410;52.532;13.336;2022-10-15T01:27:22;100343.09;;;17.00;88.56
16595;BME280;8410;52.532;13.336;2022-10-15T01:30:15;100328.41;;;16.97;87.98
16595;BME280;8410;52.532;13.336;2022-10-15T01:32:48;100332.00;;;16.91;89.44
16595;BME280;8410;52.532;13.336;2022-10-15T01:35:27;100318.06;;;16.95;89.28
16595;BME280;8410;52.532;13.336;2022-10-15T01:38:03;100325.03;;;16.93;89.58
16595;BME280;8410;52.532;13.336;2022-10-15T01:40:37;100319.19;;;16.82;90.84
16595;BME280;8410;52.532;13.336;2022-10-15T01:43:12;100317.31;;;16.89;88.92
16595;BME280;8410;52.532;13.336;2022-10-15T01:45:47;100312.63;;;16.63;90.27
16595;BME280;8410;52.532;13.336;2022-10-15T01:48:16;100317.38;;;16.87;90.28
16595;BME280;8410;52.532;13.336;2022-10-15T01:50:47;100310.72;;;16.71;90.02
16595;BME280;8410;52.532;13.336;2022-10-15T01:53:21;100315.69;;;16.83;90.46
16595;BME280;8410;52.532;13.336;2022-10-15T01:55:55;100304.22;;;16.95;89.65
16595;BME280;8410;52.532;13.336;2022-10-15T01:58:25;100306.97;;;16.87;89.99
16595;BME280;8410;52.532;13.336;2022-10-15T02:00:55;100307.03;;;16.84;89.93
16595;BME280;8410;52.532;13.336;2022-10-15T02:03:24;100301.47;;;16.58;91.82
16595;BME280;8410;52.532;13.336;2022-10-15T02:05:54;100305.31;;;16.83;91.70
16595;BME280;8410;52.532;13.336;2022-10-15T02:08:31;100307.91;;;17.25;89.27
16595;BME280;8410;52.532;13.336;2022-10-15T02:11:03;100302.25;;;16.60;90.21
16595;BME280;8410;52.532;13.336;2022-10-15T02:13:40;100294.72;;;16.92;90.40
16595;BME280;8410;52.532;13.336;2022-10-15T02:16:13;100302.03;;;17.15;89.34
16595;BME280;8410;52.532;13.336;2022-10-15T02:18:47;100292.69;;;17.07;88.31
16595;BME280;8410;52.532;13.336;2022-10-15T02:21:20;100293.28;;;17.19;88.50
16595;BME280;8410;52.532;13.336;2022-10-15T02:23:51;100284.50;;;17.61;87.52
16595;BME280;8410;52.532;13.336;2022-10-15T02:26:20;100281.06;;;17.60;87.15
16595;BME280;8410;52.532;13.336;2022-10-15T02:28:54;100283.97;;;17.48;86.90
16595;BME280;8410;52.532;13.336;2022-10-15T02:31:26;100284.00;;;17.47;84.81
16595;BME280;8410;52.532;13.336;2022-10-15T02:34:00;100279.69;;;17.46;86.15
16595;BME280;8410;52.532;13.336;2022-10-15T02:36:29;100290.69;;;16.78;87.54
16595;BME280;8410;52.532;13.336;2022-10-15T02:38:57;100284.81;;;17.10;88.82
16595;BME280;8410;52.532;13.336;2022-10-15T02:41:27;100289.25;;;17.05;88.66
16595;BME280;8410;52.532;13.336;2022-10-15T02:43:55;100286.53;;;17.11;89.13
16595;BME280;8410;52.532;13.336;2022-10-15T02:46:22;100280.91;;;16.90;89.00
16595;BME280;8410;52.532;13.336;2022-10-15T02:48:51;100274.25;;;16.77;89.47
16595;BME280;8410;52.532;13.336;2022-10-15T02:51:19;100273.50;;;16.69;90.31
16595;BME280;8410;52.532;13.336;2022-10-15T02:53:46;100277.44;;;16.90;89.95
16595;BME280;8410;52.532;13.336;2022-10-15T02:56:13;100272.94;;;16.98;89.40
16595;BME280;8410;52.532;13.336;2022-10-15T02:58:41;100273.88;;;16.95;90.19
16595;BME280;8410;52.532;13.336;2022-10-15T03:01:08;100275.00;;;16.36;91.69
16595;BME280;8410;52.532;13.336;2022-10-15T03:03:36;100266.56;;;16.69;91.18
16595;BME280;8410;52.532;13.336;2022-10-15T03:06:05;100270.75;;;16.78;90.56
16595;BME280;8410;52.532;13.336;2022-10-15T03:08:32;100275.88;;;16.81;90.28
16595;BME280;8410;52.532;13.336;2022-10-15T03:11:00;100272.00;;;16.57;90.91
16595;BME280;8410;52.532;13.336;2022-10-15T03:13:28;100270.97;;;16.66;90.41
16595;BME280;8410;52.532;13.336;2022-10-15T03:15:56;100276.88;;;16.74;91.17
16595;BME280;8410;52.532;13.336;2022-10-15T03:18:24;100270.84;;;16.72;89.37
16595;BME280;8410;52.532;13.336;2022-10-15T03:20:52;100277.09;;;16.62;91.19
16595;BME280;8410;52.532;13.336;2022-10-15T03:23:21;100268.66;;;16.52;90.71
16595;BME280;8410;52.532;13.336;2022-10-15T03:25:49;100264.06;;;16.65;92.32
16595;BME280;8410;52.532;13.336;2022-10-15T03:28:17;100261.44;;;16.65;91.25
16595;BME280;8410;52.532;13.336;2022-10-15T03:30:45;100253.47;;;16.74;92.14
16595;BME280;8410;52.532;13.336;2022-10-15T03:33:13;100246.50;;;16.76;91.30
16595;BME280;8410;52.532;13.336;2022-10-15T03:35:40;100251.19;;;16.14;93.87
16595;BME280;8410;52.532;13.336;2022-10-15T03:38:08;100256.66;;;16.45;91.86
16595;BME280;8410;52.532;13.336;2022-10-15T03:40:36;100251.19;;;16.59;92.44
16595;BME280;8410;52.532;13.336;2022-10-15T03:43:04;100248.59;;;16.59;91.09
16595;BME280;8410;52.532;13.336;2022-10-15T03:45:32;100251.19;;;16.59;90.68
16595;BME280;8410;52.532;13.336;2022-10-15T03:47:59;100240.63;;;16.66;90.81
16595;BME280;8410;52.532;13.336;2022-10-15T03:50:26;100245.16;;;16.57;90.95
16595;BME280;8410;52.532;13.336;2022-10-15T03:52:54;100246.22;;;16.48;92.23
16595;BME280;8410;52.532;13.336;2022-10-15T03:55:21;100244.25;;;16.59;91.72
16595;BME280;8410;52.532;13.336;2022-10-15T03:57:50;100247.91;;;16.49;92.00
16595;BME280;8410;52.532;13.336;2022-10-15T04:00:17;100246.13;;;16.52;90.98
16595;BME280;8410;52.532;13.336;2022-10-15T04:02:45;100253.28;;;16.40;91.90
16595;BME280;8410;52.532;13.336;2022-10-15T04:05:12;100243.38;;;16.59;90.95
16595;BME280;8410;52.532;13.336;2022-10-15T04:07:40;100254.84;;;16.48;91.22
16595;BME280;8410;52.532;13.336;2022-10-15T04:10:08;100252.19;;;16.51;91.65
16595;BME280;8410;52.532;13.336;2022-10-15T04:12:35;100249.56;;;16.53;90.93
16595;BME280;8410;52.532;13.336;2022-10-15T04:15:05;100256.59;;;16.49;91.56
16595;BME280;8410;52.532;13.336;2022-10-15T04:17:33;100256.72;;;16.42;93.30
16595;BME280;8410;52.532;13.336;2022-10-15T04:20:00;100266.72;;;16.62;90.70
16595;BME280;8410;52.532;13.336;2022-10-15T04:22:28;100259.19;;;16.49;91.40
16595;BME280;8410;52.532;13.336;2022-10-15T04:24:55;100259.19;;;16.49;91.88
16595;BME280;8410;52.532;13.336;2022-10-15T04:27:22;100260.66;;;16.63;92.00
16595;BME280;8410;52.532;13.336;2022-10-15T04:29:50;100257.34;;;16.54;91.33
16595;BME280;8410;52.532;13.336;2022-10-15T04:32:19;100259.06;;;16.56;91.85
16595;BME280;8410;52.532;13.336;2022-10-15T04:34:46;100258.28;;;16.49;91.93
16595;BME280;8410;52.532;13.336;2022-10-15T04:37:14;100258.44;;;16.43;92.28
16595;BME280;8410;52.532;13.336;2022-10-15T04:39:41;100259.22;;;16.46;92.04
16595;BME280;8410;52.532;13.336;2022-10-15T04:42:09;100255.97;;;16.37;91.54
16595;BME280;8410;52.532;13.336;2022-10-15T04:44:36;100262.78;;;16.42;92.56
16595;BME280;8410;52.532;13.336;2022-10-15T04:47:04;100262.66;;;16.48;92.29
16595;BME280;8410;52.532;13.336;2022-10-15T04:49:32;100264.53;;;16.40;91.98
16595;BME280;8410;52.532;13.336;2022-10-15T04:52:00;100264.38;;;16.49;92.92
16595;BME280;8410;52.532;13.336;2022-10-15T04:54:27;100265.06;;;16.13;94.61
16595;BME280;8410;52.532;13.336;2022-10-15T04:56:55;100269.22;;;16.21;92.58
16595;BME280;8410;52.532;13.336;2022-10-15T04:59:22;100270.13;;;16.19;93.30
16595;BME280;8410;52.532;13.336;2022-10-15T05:01:49;100267.09;;;15.95;95.38
16595;BME280;8410;52.532;13.336;2022-10-15T05:04:17;100268.13;;;16.33;93.74
16595;BME280;8410;52.532;13.336;2022-10-15T05:06:46;100270.34;;;16.54;93.36
16595;BME280;8410;52.532;13.336;2022-10-15T05:09:13;100264.81;;;16.25;93.54
16595;BME280;8410;52.532;13.336;2022-10-15T05:11:41;100254.97;;;16.42;93.72
16595;BME280;8410;52.532;13.336;2022-10-15T05:14:08;100262.72;;;16.45;93.52
16595;BME280;8410;52.532;13.336;2022-10-15T05:16:35;100266.63;;;16.20;94.21
16595;BME280;8410;52.532;13.336;2022-10-15T05:19:05;100266.31;;;16.38;94.03
16595;BME280;8410;52.532;13.336;2022-10-15T05:21:34;100265.72;;;16.69;92.37
16595;BME280;8410;52.532;13.336;2022-10-15T05:24:03;100265.38;;;16.42;91.88
16595;BME280;8410;52.532;13.336;2022-10-15T05:26:31;100261.75;;;16.04;95.40
16595;BME280;8410;52.532;13.336;2022-10-15T05:28:59;100267.41;;;16.25;94.35
16595;BME280;8410;52.532;13.336;2022-10-15T05:31:29;100268.31;;;16.24;93.71
16595;BME280;8410;52.532;13.336;2022-10-15T05:33:57;100272.06;;;16.07;94.64
16595;BME280;8410;52.532;13.336;2022-10-15T05:36:26;100271.09;;;16.13;94.17
16595;BME280;8410;52.532;13.336;2022-10-15T05:38:56;100278.03;;;16.13;94.14
16595;BME280;8410;52.532;13.336;2022-10-15T05:41:26;100273.94;;;16.47;91.87
16595;BME280;8410;52.532;13.336;2022-10-15T05:43:56;100276.53;;;16.47;92.20
16595;BME280;8410;52.532;13.336;2022-10-15T05:46:24;100286.72;;;16.57;92.25
16595;BME280;8410;52.532;13.336;2022-10-15T05:48:54;100283.28;;;16.58;91.09
16595;BME280;8410;52.532;13.336;2022-10-15T05:51:22;100286.50;;;16.22;91.32
16595;BME280;8410;52.532;13.336;2022-10-15T05:53:51;100282.78;;;16.39;92.32
16595;BME280;8410;52.532;13.336;2022-10-15T05:56:18;100285.97;;;16.51;92.37
16595;BME280;8410;52.532;13.336;2022-10-15T05:58:47;100292.03;;;16.52;91.39
16595;BME280;8410;52.532;13.336;2022-10-15T06:01:16;100283.22;;;16.59;91.42
16595;BME280;8410;52.532;13.336;2022-10-15T06:03:43;100291.75;;;16.19;91.47
16595;BME280;8410;52.532;13.336;2022-10-15T06:06:16;100300.81;;;15.95;94.23
16595;BME280;8410;52.532;13.336;2022-10-15T06:08:46;100296.34;;;16.06;95.08
16595;BME280;8410;52.532;13.336;2022-10-15T06:11:14;100308.72;;;15.89;95.14
16595;BME280;8410;52.532;13.336;2022-10-15T06:13:42;100307.16;;;15.79;95.55
16595;BME280;8410;52.532;13.336;2022-10-15T06:16:12;100302.53;;;15.98;96.40
16595;BME280;8410;52.532;13.336;2022-10-15T06:18:44;100312.53;;;15.65;97.38
16595;BME280;8410;52.532;13.336;2022-10-15T06:21:12;100324.13;;;15.39;96.11
16595;BME280;8410;52.532;13.336;2022-10-15T06:23:39;100322.13;;;16.16;94.65
16595;BME280;8410;52.532;13.336;2022-10-15T06:26:08;100315.50;;;15.99;94.49
16595;BME280;8410;52.532;13.336;2022-10-15T06:28:37;100308.16;;;16.23;94.71
16595;BME280;8410;52.532;13.336;2022-10-15T06:31:05;100318.44;;;16.29;91.57
16595;BME280;8410;52.532;13.336;2022-10-15T06:33:35;100314.53;;;16.05;93.77
16595;BME280;8410;52.532;13.336;2022-10-15T06:36:04;100314.72;;;15.93;95.35
16595;BME280;8410;52.532;13.336;2022-10-15T06:38:32;100326.16;;;15.81;95.88
16595;BME280;8410;52.532;13.336;2022-10-15T06:41:02;100320.19;;;16.27;94.59
16595;BME280;8410;52.532;13.336;2022-10-15T06:43:30;100326.34;;;16.68;91.69
16595;BME280;8410;52.532;13.336;2022-10-15T06:46:01;100320.91;;;16.83;90.94
16595;BME280;8410;52.532;13.336;2022-10-15T06:48:29;100329.22;;;17.01;90.87
16595;BME280;8410;52.532;13.336;2022-10-15T06:50:59;100329.16;;;17.04;90.83
16595;BME280;8410;52.532;13.336;2022-10-15T06:53:28;100327.03;;;17.21;89.24
16595;BME280;8410;52.532;13.336;2022-10-15T06:55:56;100334.28;;;17.07;90.25
16595;BME280;8410;52.532;13.336;2022-10-15T06:58:24;100342.13;;;17.05;90.04
16595;BME280;8410;52.532;13.336;2022-10-15T07:00:51;100346.22;;;17.17;89.69
16595;BME280;8410;52.532;13.336;2022-10-15T07:03:19;100346.09;;;17.23;90.12
16595;BME280;8410;52.532;13.336;2022-10-15T07:05:46;100353.41;;;17.06;90.40
16595;BME280;8410;52.532;13.336;2022-10-15T07:08:15;100354.13;;;17.12;90.45
16595;BME280;8410;52.532;13.336;2022-10-15T07:10:45;100357.94;;;16.94;90.70
16595;BME280;8410;52.532;13.336;2022-10-15T07:13:12;100363.53;;;17.18;90.35
16595;BME280;8410;52.532;13.336;2022-10-15T07:15:39;100366.75;;;17.29;90.11
16595;BME280;8410;52.532;13.336;2022-10-15T07:18:07;100372.09;;;17.23;88.96
16595;BME280;8410;52.532;13.336;2022-10-15T07:20:34;100378.00;;;17.31;89.77
16595;BME280;8410;52.532;13.336;2022-10-15T07:23:02;100375.31;;;17.36;89.47
16595;BME280;8410;52.532;13.336;2022-10-15T07:25:31;100380.22;;;17.50;89.81
16595;BME280;8410;52.532;13.336;2022-10-15T07:27:59;100368.31;;;17.38;89.85
16595;BME280;8410;52.532;13.336;2022-10-15T07:30:27;100368.28;;;17.39;89.72
16595;BME280;8410;52.532;13.336;2022-10-15T07:32:55;100354.16;;;17.51;88.68
16595;BME280;8410;52.532;13.336;2022-10-15T07:35:22;100356.34;;;17.70;88.00
16595;BME280;8410;52.532;13.336;2022-10-15T07:37:50;100363.09;;;17.77;88.30
16595;BME280;8410;52.532;13.336;2022-10-15T07:40:17;100357.28;;;17.67;89.57
16595;BME280;8410;52.532;13.336;2022-10-15T07:42:52;100361.34;;;17.80;88.86
16595;BME280;8410;52.532;13.336;2022-10-15T07:45:20;100362.00;;;17.89;87.54
16595;BME280;8410;52.532;13.336;2022-10-15T07:47:48;100360.28;;;17.88;87.29
16595;BME280;8410;52.532;13.336;2022-10-15T07:50:16;100365.47;;;17.89;87.22
16595;BME280;8410;52.532;13.336;2022-10-15T07:52:43;100358.50;;;17.90;88.10
16595;BME280;8410;52.532;13.336;2022-10-15T07:55:11;100357.75;;;17.84;89.17
16595;BME280;8410;52.532;13.336;2022-10-15T07:57:39;100352.03;;;18.06;87.33
16595;BME280;8410;52.532;13.336;2022-10-15T08:00:09;100352.94;;;18.05;86.85
16595;BME280;8410;52.532;13.336;2022-10-15T08:02:36;100345.53;;;18.22;87.59
16595;BME280;8410;52.532;13.336;2022-10-15T08:05:04;100350.63;;;18.28;86.27
16595;BME280;8410;52.532;13.336;2022-10-15T08:07:32;100351.47;;;18.29;85.61
16595;BME280;8410;52.532;13.336;2022-10-15T08:10:00;100358.44;;;18.61;87.92
16595;BME280;8410;52.532;13.336;2022-10-15T08:12:27;100352.16;;;19.31;82.74
16595;BME280;8410;52.532;13.336;2022-10-15T08:14:55;100366.53;;;19.44;82.50
16595;BME280;8410;52.532;13.336;2022-10-15T08:17:23;100365.47;;;19.51;81.39
16595;BME280;8410;52.532;13.336;2022-10-15T08:19:51;100367.72;;;19.04;83.06
16595;BME280;8410;52.532;13.336;2022-10-15T08:22:18;100376.28;;;19.39;81.65
16595;BME280;8410;52.532;13.336;2022-10-15T08:24:46;100368.72;;;19.58;80.75
16595;BME280;8410;52.532;13.336;2022-10-15T08:27:13;100365.34;;;19.84;79.72
16595;BME280;8410;52.532;13.336;2022-10-15T08:29:41;100370.41;;;19.60;80.83
16595;BME280;8410;52.532;13.336;2022-10-15T08:32:08;100379.00;;;19.92;79.01
16595;BME280;8410;52.532;13.336;2022-10-15T08:34:37;100378.53;;;19.51;80.82
16595;BME280;8410;52.532;13.336;2022-10-15T08:37:05;100370.16;;;19.96;78.52
16595;BME280;8410;52.532;13.336;2022-10-15T08:39:32;100377.72;;;20.32;76.94
16595;BME280;8410;52.532;13.336;2022-10-15T08:42:02;100373.97;;;20.39;76.91
16595;BME280;8410;52.532;13.336;2022-10-15T08:44:36;100374.28;;;20.03;78.37
16595;BME280;8410;52.532;13.336;2022-10-15T08:47:07;100374.06;;;19.83;78.27
16595;BME280;8410;52.532;13.336;2022-10-15T08:49:42;100374.81;;;19.58;79.65
16595;BME280;8410;52.532;13.336;2022-10-15T08:52:16;100374.00;;;19.86;79.21
16595;BME280;8410;52.532;13.336;2022-10-15T08:54:46;100372.16;;;19.88;78.66
16595;BME280;8410;52.532;13.336;2022-10-15T08:57:26;100381.81;;;19.56;79.51
16595;BME280;8410;52.532;13.336;2022-10-15T09:00:03;100378.94;;;19.66;79.20
16595;BME280;8410;52.532;13.336;2022-10-15T09:02:35;100379.75;;;19.96;78.66
16595;BME280;8410;52.532;13.336;2022-10-15T09:05:24;100385.84;;;19.96;78.56
16595;BME280;8410;52.532;13.336;2022-10-15T09:07:56;100386.59;;;20.00;78.38
16595;BME280;8410;52.532;13.336;2022-10-15T09:10:32;100388.38;;;19.99;78.07
16595;BME280;8410;52.532;13.336;2022-10-15T09:13:06;100389.34;;;19.67;79.52
16595;BME280;8410;52.532;13.336;2022-10-15T09:15:47;100392.19;;;20.16;77.55
16595;BME280;8410;52.532;13.336;2022-10-15T09:18:19;100395.59;;;20.18;77.34
16595;BME280;8410;52.532;13.336;2022-10-15T09:20:49;100389.38;;;19.95;77.70
16595;BME280;8410;52.532;13.336;2022-10-15T09:23:21;100392.19;;;20.16;76.36
16595;BME280;8410;52.532;13.336;2022-10-15T09:25:53;100403.63;;;19.26;80.61
16595;BME280;8410;52.532;13.336;2022-10-15T09:28:25;100388.16;;;19.20;80.25
16595;BME280;8410;52.532;13.336;2022-10-15T09:30:57;100395.84;;;18.93;82.19
16595;BME280;8410;52.532;13.336;2022-10-15T09:33:35;100398.78;;;18.81;83.50
16595;BME280;8410;52.532;13.336;2022-10-15T09:36:15;100397.72;;;18.55;83.00
16595;BME280;8410;52.532;13.336;2022-10-15T09:38:52;100408.88;;;19.24;80.84
16595;BME280;8410;52.532;13.336;2022-10-15T09:41:29;100401.19;;;19.49;80.02
16595;BME280;8410;52.532;13.336;2022-10-15T09:44:00;100400.91;;;19.29;81.30
16595;BME280;8410;52.532;13.336;2022-10-15T09:46:32;100404.53;;;19.25;79.94
16595;BME280;8410;52.532;13.336;2022-10-15T09:49:05;100404.63;;;19.51;80.26
16595;BME280;8410;52.532;13.336;2022-10-15T09:51:39;100407.03;;;18.98;81.38
16595;BME280;8410;52.532;13.336;2022-10-15T09:54:18;100403.91;;;19.76;79.79
16595;BME280;8410;52.532;13.336;2022-10-15T09:56:52;100401.44;;;19.99;77.83
16595;BME280;8410;52.532;13.336;2022-10-15T09:59:21;100396.97;;;20.03;77.52
16595;BME280;8410;52.532;13.336;2022-10-15T10:01:57;100389.88;;;20.33;77.06
16595;BME280;8410;52.532;13.336;2022-10-15T10:04:26;100394.69;;;20.19;77.32
16595;BME280;8410;52.532;13.336;2022-10-15T10:06:57;100407.94;;;20.13;77.70
16595;BME280;8410;52.532;13.336;2022-10-15T10:09:28;100406.84;;;19.64;80.72
16595;BME280;8410;52.532;13.336;2022-10-15T10:11:59;100400.31;;;20.33;77.38
16595;BME280;8410;52.532;13.336;2022-10-15T10:14:30;100410.38;;;20.45;76.52
16595;BME280;8410;52.532;13.336;2022-10-15T10:17:15;100405.16;;;20.19;76.92
16595;BME280;8410;52.532;13.336;2022-10-15T10:19:44;100409.94;;;20.33;77.35
16595;BME280;8410;52.532;13.336;2022-10-15T10:22:16;100409.06;;;20.05;77.66
16595;BME280;8410;52.532;13.336;2022-10-15T10:24:44;100406.16;;;20.15;77.44
16595;BME280;8410;52.532;13.336;2022-10-15T10:27:18;100410.25;;;19.67;80.09
16595;BME280;8410;52.532;13.336;2022-10-15T10:29:48;100406.81;;;20.21;77.30
16595;BME280;8410;52.532;13.336;2022-10-15T10:32:19;100410.25;;;20.23;77.80
16595;BME280;8410;52.532;13.336;2022-10-15T10:34:47;100406.13;;;20.41;75.80
16595;BME280;8410;52.532;13.336;2022-10-15T10:37:20;100412.16;;;20.18;76.98
16595;BME280;8410;52.532;13.336;2022-10-15T10:39:51;100414.78;;;19.60;78.25
16595;BME280;8410;52.532;13.336;2022-10-15T10:42:31;100413.31;;;19.81;78.85
16595;BME280;8410;52.532;13.336;2022-10-15T10:45:17;100407.63;;;20.23;77.56
16595;BME280;8410;52.532;13.336;2022-10-15T10:47:45;100394.78;;;20.42;76.50
16595;BME280;8410;52.532;13.336;2022-10-15T10:50:29;100405.66;;;20.57;75.89
16595;BME280;8410;52.532;13.336;2022-10-15T10:53:10;100403.69;;;20.37;76.86
16595;BME280;8410;52.532;13.336;2022-10-15T10:55:41;100416.69;;;19.55;79.17
16595;BME280;8410;52.532;13.336;2022-10-15T10:58:16;100411.25;;;19.61;80.42
16595;BME280;8410;52.532;13.336;2022-10-15T11:00:52;100412.63;;;20.03;79.05
16595;BME280;8410;52.532;13.336;2022-10-15T11:03:33;100406.84;;;20.46;75.67
16595;BME280;8410;52.532;13.336;2022-10-15T11:06:12;100403.53;;;20.41;76.37
16595;BME280;8410;52.532;13.336;2022-10-15T11:08:51;100400.38;;;19.77;79.19
16595;BME280;8410;52.532;13.336;2022-10-15T11:11:26;100404.66;;;20.08;78.21
16595;BME280;8410;52.532;13.336;2022-10-15T11:14:02;100402.94;;;20.60;76.65
16595;BME280;8410;52.532;13.336;2022-10-15T11:16:39;100394.22;;;20.84;76.09
16595;BME280;8410;52.532;13.336;2022-10-15T11:19:19;100408.50;;;20.76;75.49
16595;BME280;8410;52.532;13.336;2022-10-15T11:22:22;100404.50;;;20.90;74.82
16595;BME280;8410;52.532;13.336;2022-10-15T11:25:05;100398.25;;;20.69;75.46
16595;BME280;8410;52.532;13.336;2022-10-15T11:27:48;100405.19;;;20.17;76.36
16595;BME280;8410;52.532;13.336;2022-10-15T11:30:31;100396.44;;;20.72;75.98
16595;BME280;8410;52.532;13.336;2022-10-15T11:33:12;100387.41;;;20.55;76.24
16595;BME280;8410;52.532;13.336;2022-10-15T11:35:47;100385.72;;;20.53;76.96
16595;BME280;8410;52.532;13.336;2022-10-15T11:38:27;100395.09;;;20.33;77.53
16595;BME280;8410;52.532;13.336;2022-10-15T11:41:24;100387.91;;;20.66;75.74
16595;BME280;8410;52.532;13.336;2022-10-15T11:44:29;100386.59;;;20.78;74.33
16595;BME280;8410;52.532;13.336;2022-10-15T11:47:08;100375.38;;;21.00;74.79
16595;BME280;8410;52.532;13.336;2022-10-15T11:49:43;100381.44;;;21.00;73.98
16595;BME280;8410;52.532;13.336;2022-10-15T11:52:29;100384.69;;;20.83;75.36
16595;BME280;8410;52.532;13.336;2022-10-15T11:55:03;100386.75;;;20.99;74.23
16595;BME280;8410;52.532;13.336;2022-10-15T11:57:36;100382.28;;;20.77;75.21
16595;BME280;8410;52.532;13.336;2022-10-15T12:00:15;100374.94;;;21.12;74.42
16595;BME280;8410;52.532;13.336;2022-10-15T12:02:45;100377.03;;;21.02;74.11
16595;BME280;8410;52.532;13.336;2022-10-15T12:05:17;100378.59;;;20.83;74.78
16595;BME280;8410;52.532;13.336;2022-10-15T12:07:47;100374.63;;;20.96;74.95
16595;BME280;8410;52.532;13.336;2022-10-15T12:10:27;100376.06;;;21.28;73.71
16595;BME280;8410;52.532;13.336;2022-10-15T12:13:02;100387.25;;;21.08;74.15
16595;BME280;8410;52.532;13.336;2022-10-15T12:15:34;100382.53;;;21.18;74.21
16595;BME280;8410;52.532;13.336;2022-10-15T12:18:12;100379.03;;;21.43;73.18
16595;BME280;8410;52.532;13.336;2022-10-15T12:20:43;100379.09;;;20.92;74.03
16595;BME280;8410;52.532;13.336;2022-10-15T12:23:24;100380.28;;;20.84;75.25
16595;BME280;8410;52.532;13.336;2022-10-15T12:25:52;100375.56;;;20.70;75.01
16595;BME280;8410;52.532;13.336;2022-10-15T12:28:22;100378.56;;;21.08;74.43
16595;BME280;8410;52.532;13.336;2022-10-15T12:30:58;100380.84;;;20.93;74.08
16595;BME280;8410;52.532;13.336;2022-10-15T12:33:34;100376.56;;;21.14;74.76
16595;BME280;8410;52.532;13.336;2022-10-15T12:36:05;100386.38;;;20.84;75.10
16595;BME280;8410;52.532;13.336;2022-10-15T12:38:37;100384.13;;;20.99;74.17
16595;BME280;8410;52.532;13.336;2022-10-15T12:41:07;100379.25;;;21.13;73.34
16595;BME280;8410;52.532;13.336;2022-10-15T12:43:39;100377.63;;;21.32;73.00
16595;BME280;8410;52.532;13.336;2022-10-15T12:46:08;100381.44;;;21.00;73.82
16595;BME280;8410;52.532;13.336;2022-10-15T12:48:38;100377.06;;;21.01;74.46
16595;BME280;8410;52.532;13.336;2022-10-15T12:51:28;100381.41;;;21.25;74.22
16595;BME280;8410;52.532;13.336;2022-10-15T12:53:55;100381.47;;;20.75;74.56
16595;BME280;8410;52.532;13.336;2022-10-15T12:56:35;100382.41;;;20.98;74.85
16595;BME280;8410;52.532;13.336;2022-10-15T12:59:28;100378.72;;;21.27;73.68
16595;BME280;8410;52.532;13.336;2022-10-15T13:01:57;100380.06;;;20.66;74.42
16595;BME280;8410;52.532;13.336;2022-10-15T13:04:36;100372.06;;;20.95;73.64
16595;BME280;8410;52.532;13.336;2022-10-15T13:07:04;100373.78;;;20.96;74.19
16595;BME280;8410;52.532;13.336;2022-10-15T13:09:31;100366.91;;;20.68;73.69
16595;BME280;8410;52.532;13.336;2022-10-15T13:11:59;100373.44;;;20.30;76.24